sensor_id;sensor_type;location;lat;lon;timestamp;P1;durP1;ratioP1;P2;durP2;ratioP2
13439;SDS011;6792;57.698;11.946;2023-08-12T00:00:10;4.90;;;2.60;;
13439;SDS011;6792;57.698;11.946;2023-08-12T00:02:40;7.00;;;2.70;;
13439;SDS011;6792;57.698;11.946;2023-08-12T00:05:15;6.67;;;2.92;;
13439;SDS011;6792;57.698;11.946;2023-08-12T00:07:45;6.45;;;2.60;;
13439;SDS011;6792;57.698;11.946;2023-08-12T00:10:16;6.03;;;3.05;;
13439;SDS011;6792;57.698;11.946;2023-08-12T00:12:45;6.25;;;3.35;;
13439;SDS011;6792;57.698;11.946;2023-08-12T00:15:15;5.20;;;2.95;;
13439;SDS011;6792;57.698;11.946;2023-08-12T00:17:44;4.15;;;2.75;;
13439;SDS011;6792;57.698;11.946;2023-08-12T00:20:18;3.87;;;2.75;;
13439;SDS011;6792;57.698;11.946;2023-08-12T00:22:48;4.70;;;3.00;;
13439;SDS011;6792;57.698;11.946;2023-08-12T00:25:18;6.78;;;3.02;;
13439;SDS011;6792;57.698;11.946;2023-08-12T00:27:47;3.15;;;2.80;;
13439;SDS011;6792;57.698;11.946;2023-08-12T00:30:17;4.83;;;3.02;;
13439;SDS011;6792;57.698;11.946;2023-08-12T00:32:47;3.83;;;2.98;;
13439;SDS011;6792;57.698;11.946;2023-08-12T00:35:16;3.98;;;2.70;;
13439;SDS011;6792;57.698;11.946;2023-08-12T00:37:46;3.50;;;2.90;;
13439;SDS011;6792;57.698;11.946;2023-08-12T00:40:15;5.08;;;3.37;;
13439;SDS011;6792;57.698;11.946;2023-08-12T00:42:45;4.45;;;2.87;;
13439;SDS011;6792;57.698;11.946;2023-08-12T00:45:14;5.78;;;2.90;;
13439;SDS011;6792;57.698;11.946;2023-08-12T00:47:44;5.25;;;3.00;;
13439;SDS011;6792;57.698;11.946;2023-08-12T00:50:15;4.85;;;3.10;;
13439;SDS011;6792;57.698;11.946;2023-08-12T00:52:45;4.47;;;2.92;;
13439;SDS011;6792;57.698;11.946;2023-08-12T00:55:18;4.62;;;2.98;;
13439;SDS011;6792;57.698;11.946;2023-08-12T00:57:47;5.30;;;3.15;;
13439;SDS011;6792;57.698;11.946;2023-08-12T01:00:17;3.45;;;2.92;;
13439;SDS011;6792;57.698;11.946;2023-08-12T01:02:49;4.10;;;2.80;;
13439;SDS011;6792;57.698;11.946;2023-08-12T01:05:19;3.75;;;3.08;;
13439;SDS011;6792;57.698;11.946;2023-08-12T01:07:48;9.08;;;3.35;;
13439;SDS011;6792;57.698;11.946;2023-08-12T01:10:20;4.50;;;3.37;;
13439;SDS011;6792;57.698;11.946;2023-08-12T01:12:52;4.67;;;3.02;;
13439;SDS011;6792;57.698;11.946;2023-08-12T01:15:23;5.83;;;3.20;;
13439;SDS011;6792;57.698;11.946;2023-08-12T01:17:56;3.75;;;2.72;;
13439;SDS011;6792;57.698;11.946;2023-08-12T01:20:28;5.92;;;3.92;;
13439;SDS011;6792;57.698;11.946;2023-08-12T01:25:36;7.50;;;3.35;;
13439;SDS011;6792;57.698;11.946;2023-08-12T01:28:05;7.45;;;3.70;;
13439;SDS011;6792;57.698;11.946;2023-08-12T01:30:35;8.13;;;3.00;;
13439;SDS011;6792;57.698;11.946;2023-08-12T01:33:09;5.35;;;3.30;;
13439;SDS011;6792;57.698;11.946;2023-08-12T01:35:43;4.75;;;3.37;;
13439;SDS011;6792;57.698;11.946;2023-08-12T01:38:14;6.08;;;3.30;;
13439;SDS011;6792;57.698;11.946;2023-08-12T01:40:45;7.25;;;3.20;;
13439;SDS011;6792;57.698;11.946;2023-08-12T01:43:16;6.47;;;3.08;;
13439;SDS011;6792;57.698;11.946;2023-08-12T01:45:46;3.90;;;3.10;;
13439;SDS011;6792;57.698;11.946;2023-08-12T01:48:16;4.47;;;3.30;;
13439;SDS011;6792;57.698;11.946;2023-08-12T01:50:46;3.40;;;3.02;;
13439;SDS011;6792;57.698;11.946;2023-08-12T01:53:15;4.22;;;2.85;;
13439;SDS011;6792;57.698;11.946;2023-08-12T01:55:45;4.28;;;2.72;;
13439;SDS011;6792;57.698;11.946;2023-08-12T01:58:15;3.85;;;2.95;;
13439;SDS011;6792;57.698;11.946;2023-08-12T02:00:45;5.15;;;3.25;;
13439;SDS011;6792;57.698;11.946;2023-08-12T02:03:14;3.20;;;2.90;;
13439;SDS011;6792;57.698;11.946;2023-08-12T02:05:44;5.05;;;2.70;;
13439;SDS011;6792;57.698;11.946;2023-08-12T02:08:13;2.85;;;2.55;;
13439;SDS011;6792;57.698;11.946;2023-08-12T02:10:43;3.20;;;2.90;;
13439;SDS011;6792;57.698;11.946;2023-08-12T02:13:12;4.10;;;2.90;;
13439;SDS011;6792;57.698;11.946;2023-08-12T02:15:42;4.70;;;2.90;;
13439;SDS011;6792;57.698;11.946;2023-08-12T02:18:12;5.60;;;2.67;;
13439;SDS011;6792;57.698;11.946;2023-08-12T02:20:41;8.75;;;2.55;;
13439;SDS011;6792;57.698;11.946;2023-08-12T02:23:11;5.87;;;2.58;;
13439;SDS011;6792;57.698;11.946;2023-08-12T02:25:40;5.42;;;2.50;;
13439;SDS011;6792;57.698;11.946;2023-08-12T02:28:11;2.85;;;2.52;;
13439;SDS011;6792;57.698;11.946;2023-08-12T02:30:42;5.58;;;2.90;;
13439;SDS011;6792;57.698;11.946;2023-08-12T02:33:11;4.92;;;2.75;;
13439;SDS011;6792;57.698;11.946;2023-08-12T02:35:41;4.20;;;2.80;;
13439;SDS011;6792;57.698;11.946;2023-08-12T02:38:10;4.12;;;2.92;;
13439;SDS011;6792;57.698;11.946;2023-08-12T02:40:40;5.25;;;2.55;;
13439;SDS011;6792;57.698;11.946;2023-08-12T02:43:10;6.72;;;2.92;;
13439;SDS011;6792;57.698;11.946;2023-08-12T02:45:38;7.12;;;3.10;;
13439;SDS011;6792;57.698;11.946;2023-08-12T02:48:09;5.53;;;3.12;;
13439;SDS011;6792;57.698;11.946;2023-08-12T02:50:39;3.12;;;2.58;;
13439;SDS011;6792;57.698;11.946;2023-08-12T02:53:08;5.70;;;3.30;;
13439;SDS011;6792;57.698;11.946;2023-08-12T02:55:37;11.73;;;3.40;;
13439;SDS011;6792;57.698;11.946;2023-08-12T03:00:55;7.15;;;2.70;;
13439;SDS011;6792;57.698;11.946;2023-08-12T03:03:25;8.78;;;3.08;;
13439;SDS011;6792;57.698;11.946;2023-08-12T03:05:54;4.12;;;2.70;;
13439;SDS011;6792;57.698;11.946;2023-08-12T03:08:24;4.00;;;2.80;;
13439;SDS011;6792;57.698;11.946;2023-08-12T03:10:58;7.78;;;2.95;;
13439;SDS011;6792;57.698;11.946;2023-08-12T03:13:28;4.15;;;2.77;;
13439;SDS011;6792;57.698;11.946;2023-08-12T03:15:58;3.02;;;2.33;;
13439;SDS011;6792;57.698;11.946;2023-08-12T03:18:29;3.22;;;2.62;;
13439;SDS011;6792;57.698;11.946;2023-08-12T03:21:05;4.33;;;2.92;;
13439;SDS011;6792;57.698;11.946;2023-08-12T03:23:35;5.08;;;2.75;;
13439;SDS011;6792;57.698;11.946;2023-08-12T03:26:05;5.78;;;2.58;;
13439;SDS011;6792;57.698;11.946;2023-08-12T03:28:35;5.97;;;2.70;;
13439;SDS011;6792;57.698;11.946;2023-08-12T03:31:04;4.47;;;2.75;;
13439;SDS011;6792;57.698;11.946;2023-08-12T03:33:34;6.87;;;2.83;;
13439;SDS011;6792;57.698;11.946;2023-08-12T03:36:04;6.65;;;2.50;;
13439;SDS011;6792;57.698;11.946;2023-08-12T03:38:33;7.25;;;3.02;;
13439;SDS011;6792;57.698;11.946;2023-08-12T03:41:03;5.37;;;2.40;;
13439;SDS011;6792;57.698;11.946;2023-08-12T03:46:10;5.10;;;2.22;;
13439;SDS011;6792;57.698;11.946;2023-08-12T03:48:39;5.33;;;2.83;;
13439;SDS011;6792;57.698;11.946;2023-08-12T03:51:09;9.28;;;2.77;;
13439;SDS011;6792;57.698;11.946;2023-08-12T03:53:38;5.58;;;2.52;;
13439;SDS011;6792;57.698;11.946;2023-08-12T03:56:08;5.62;;;2.95;;
13439;SDS011;6792;57.698;11.946;2023-08-12T03:58:39;4.62;;;2.50;;
13439;SDS011;6792;57.698;11.946;2023-08-12T04:01:08;4.95;;;2.33;;
13439;SDS011;6792;57.698;11.946;2023-08-12T04:03:38;7.75;;;2.90;;
13439;SDS011;6792;57.698;11.946;2023-08-12T04:06:07;4.50;;;2.40;;
13439;SDS011;6792;57.698;11.946;2023-08-12T04:08:37;4.85;;;2.87;;
13439;SDS011;6792;57.698;11.946;2023-08-12T04:11:07;6.08;;;2.70;;
13439;SDS011;6792;57.698;11.946;2023-08-12T04:13:39;4.60;;;3.00;;
13439;SDS011;6792;57.698;11.946;2023-08-12T04:16:09;6.67;;;3.08;;
13439;SDS011;6792;57.698;11.946;2023-08-12T04:18:39;6.05;;;2.72;;
13439;SDS011;6792;57.698;11.946;2023-08-12T04:21:09;5.12;;;2.60;;
13439;SDS011;6792;57.698;11.946;2023-08-12T04:23:39;6.05;;;2.87;;
13439;SDS011;6792;57.698;11.946;2023-08-12T04:26:09;3.80;;;2.45;;
13439;SDS011;6792;57.698;11.946;2023-08-12T04:28:39;4.03;;;2.25;;
13439;SDS011;6792;57.698;11.946;2023-08-12T04:31:08;5.55;;;3.15;;
13439;SDS011;6792;57.698;11.946;2023-08-12T04:33:38;4.78;;;2.52;;
13439;SDS011;6792;57.698;11.946;2023-08-12T04:36:08;4.42;;;2.40;;
13439;SDS011;6792;57.698;11.946;2023-08-12T04:38:44;4.80;;;2.60;;
13439;SDS011;6792;57.698;11.946;2023-08-12T04:41:14;5.15;;;2.40;;
13439;SDS011;6792;57.698;11.946;2023-08-12T04:43:45;2.58;;;2.30;;
13439;SDS011;6792;57.698;11.946;2023-08-12T04:46:14;5.15;;;2.67;;
13439;SDS011;6792;57.698;11.946;2023-08-12T04:48:44;9.13;;;2.90;;
13439;SDS011;6792;57.698;11.946;2023-08-12T04:51:14;5.22;;;3.05;;
13439;SDS011;6792;57.698;11.946;2023-08-12T04:53:44;8.23;;;3.10;;
13439;SDS011;6792;57.698;11.946;2023-08-12T04:56:13;7.80;;;2.85;;
13439;SDS011;6792;57.698;11.946;2023-08-12T04:58:43;8.93;;;3.27;;
13439;SDS011;6792;57.698;11.946;2023-08-12T05:01:21;5.08;;;2.75;;
13439;SDS011;6792;57.698;11.946;2023-08-12T05:03:51;5.25;;;2.90;;
13439;SDS011;6792;57.698;11.946;2023-08-12T05:06:24;6.20;;;2.77;;
13439;SDS011;6792;57.698;11.946;2023-08-12T05:08:53;7.00;;;2.70;;
13439;SDS011;6792;57.698;11.946;2023-08-12T05:11:24;6.37;;;2.92;;
13439;SDS011;6792;57.698;11.946;2023-08-12T05:13:54;7.20;;;2.67;;
13439;SDS011;6792;57.698;11.946;2023-08-12T05:16:23;4.72;;;3.27;;
13439;SDS011;6792;57.698;11.946;2023-08-12T05:18:53;4.85;;;2.42;;
13439;SDS011;6792;57.698;11.946;2023-08-12T05:21:22;8.35;;;2.85;;
13439;SDS011;6792;57.698;11.946;2023-08-12T05:23:53;5.53;;;3.12;;
13439;SDS011;6792;57.698;11.946;2023-08-12T05:26:22;6.05;;;3.12;;
13439;SDS011;6792;57.698;11.946;2023-08-12T05:28:52;6.00;;;2.50;;
13439;SDS011;6792;57.698;11.946;2023-08-12T05:31:24;7.05;;;3.00;;
13439;SDS011;6792;57.698;11.946;2023-08-12T05:33:54;5.83;;;3.05;;
13439;SDS011;6792;57.698;11.946;2023-08-12T05:36:24;5.00;;;3.27;;
13439;SDS011;6792;57.698;11.946;2023-08-12T05:38:55;6.37;;;2.87;;
13439;SDS011;6792;57.698;11.946;2023-08-12T05:41:25;7.65;;;2.87;;
13439;SDS011;6792;57.698;11.946;2023-08-12T05:43:55;3.45;;;2.40;;
13439;SDS011;6792;57.698;11.946;2023-08-12T05:46:24;6.72;;;2.60;;
13439;SDS011;6792;57.698;11.946;2023-08-12T05:48:54;6.20;;;3.05;;
13439;SDS011;6792;57.698;11.946;2023-08-12T05:51:24;7.12;;;2.80;;
13439;SDS011;6792;57.698;11.946;2023-08-12T05:53:53;10.88;;;3.10;;
13439;SDS011;6792;57.698;11.946;2023-08-12T05:56:32;6.80;;;3.47;;
13439;SDS011;6792;57.698;11.946;2023-08-12T05:59:02;5.47;;;3.20;;
13439;SDS011;6792;57.698;11.946;2023-08-12T06:01:32;7.42;;;4.00;;
13439;SDS011;6792;57.698;11.946;2023-08-12T06:04:02;8.48;;;3.17;;
13439;SDS011;6792;57.698;11.946;2023-08-12T06:06:36;5.90;;;2.80;;
13439;SDS011;6792;57.698;11.946;2023-08-12T06:09:06;4.87;;;3.33;;
13439;SDS011;6792;57.698;11.946;2023-08-12T06:11:40;10.10;;;2.90;;
13439;SDS011;6792;57.698;11.946;2023-08-12T06:14:21;6.40;;;3.42;;
13439;SDS011;6792;57.698;11.946;2023-08-12T06:16:56;9.23;;;3.60;;
13439;SDS011;6792;57.698;11.946;2023-08-12T06:19:28;9.58;;;3.42;;
13439;SDS011;6792;57.698;11.946;2023-08-12T06:21:58;12.07;;;3.83;;
13439;SDS011;6792;57.698;11.946;2023-08-12T06:24:29;5.72;;;3.15;;
13439;SDS011;6792;57.698;11.946;2023-08-12T06:26:59;5.85;;;3.40;;
13439;SDS011;6792;57.698;11.946;2023-08-12T06:29:32;5.87;;;3.02;;
13439;SDS011;6792;57.698;11.946;2023-08-12T06:32:05;7.33;;;3.52;;
13439;SDS011;6792;57.698;11.946;2023-08-12T06:34:35;11.85;;;4.03;;
13439;SDS011;6792;57.698;11.946;2023-08-12T06:37:05;8.10;;;3.90;;
13439;SDS011;6792;57.698;11.946;2023-08-12T06:39:34;5.33;;;3.87;;
13439;SDS011;6792;57.698;11.946;2023-08-12T06:42:05;7.90;;;3.42;;
13439;SDS011;6792;57.698;11.946;2023-08-12T06:44:34;7.28;;;3.55;;
13439;SDS011;6792;57.698;11.946;2023-08-12T06:47:04;7.55;;;3.75;;
13439;SDS011;6792;57.698;11.946;2023-08-12T06:49:34;11.40;;;3.92;;
13439;SDS011;6792;57.698;11.946;2023-08-12T06:52:04;8.83;;;4.05;;
13439;SDS011;6792;57.698;11.946;2023-08-12T06:54:34;11.25;;;4.17;;
13439;SDS011;6792;57.698;11.946;2023-08-12T06:57:04;11.05;;;3.98;;
13439;SDS011;6792;57.698;11.946;2023-08-12T06:59:35;7.85;;;3.92;;
13439;SDS011;6792;57.698;11.946;2023-08-12T07:02:05;9.15;;;4.15;;
13439;SDS011;6792;57.698;11.946;2023-08-12T07:04:35;10.70;;;3.35;;
13439;SDS011;6792;57.698;11.946;2023-08-12T07:07:16;9.63;;;4.28;;
13439;SDS011;6792;57.698;11.946;2023-08-12T07:09:47;7.03;;;4.15;;
13439;SDS011;6792;57.698;11.946;2023-08-12T07:12:17;7.92;;;3.92;;
13439;SDS011;6792;57.698;11.946;2023-08-12T07:14:47;7.03;;;3.98;;
13439;SDS011;6792;57.698;11.946;2023-08-12T07:17:20;7.20;;;4.22;;
13439;SDS011;6792;57.698;11.946;2023-08-12T07:19:50;7.12;;;4.00;;
13439;SDS011;6792;57.698;11.946;2023-08-12T07:22:19;6.12;;;3.72;;
13439;SDS011;6792;57.698;11.946;2023-08-12T07:24:49;6.30;;;3.90;;
13439;SDS011;6792;57.698;11.946;2023-08-12T07:27:19;11.55;;;4.15;;
13439;SDS011;6792;57.698;11.946;2023-08-12T07:29:48;8.53;;;4.17;;
13439;SDS011;6792;57.698;11.946;2023-08-12T07:32:18;9.40;;;4.22;;
13439;SDS011;6792;57.698;11.946;2023-08-12T07:34:51;10.40;;;4.47;;
13439;SDS011;6792;57.698;11.946;2023-08-12T07:37:21;5.97;;;3.50;;
13439;SDS011;6792;57.698;11.946;2023-08-12T07:39:50;5.47;;;3.37;;
13439;SDS011;6792;57.698;11.946;2023-08-12T07:42:20;10.15;;;4.28;;
13439;SDS011;6792;57.698;11.946;2023-08-12T07:45:01;8.70;;;4.53;;
13439;SDS011;6792;57.698;11.946;2023-08-12T07:47:31;9.88;;;4.30;;
13439;SDS011;6792;57.698;11.946;2023-08-12T07:50:01;12.35;;;4.15;;
13439;SDS011;6792;57.698;11.946;2023-08-12T07:52:31;10.03;;;3.90;;
13439;SDS011;6792;57.698;11.946;2023-08-12T07:55:02;7.80;;;4.45;;
13439;SDS011;6792;57.698;11.946;2023-08-12T07:57:33;9.88;;;3.60;;
13439;SDS011;6792;57.698;11.946;2023-08-12T08:00:03;10.50;;;4.60;;
13439;SDS011;6792;57.698;11.946;2023-08-12T08:02:36;8.60;;;4.33;;
13439;SDS011;6792;57.698;11.946;2023-08-12T08:05:07;8.75;;;4.17;;
13439;SDS011;6792;57.698;11.946;2023-08-12T08:07:37;6.45;;;3.87;;
13439;SDS011;6792;57.698;11.946;2023-08-12T08:10:07;6.50;;;3.80;;
13439;SDS011;6792;57.698;11.946;2023-08-12T08:12:38;6.03;;;4.05;;
13439;SDS011;6792;57.698;11.946;2023-08-12T08:15:08;6.87;;;3.90;;
13439;SDS011;6792;57.698;11.946;2023-08-12T08:17:38;10.05;;;4.58;;
13439;SDS011;6792;57.698;11.946;2023-08-12T08:20:08;8.10;;;4.58;;
13439;SDS011;6792;57.698;11.946;2023-08-12T08:22:38;6.47;;;4.10;;
13439;SDS011;6792;57.698;11.946;2023-08-12T08:25:08;8.40;;;4.97;;
13439;SDS011;6792;57.698;11.946;2023-08-12T08:27:37;7.97;;;4.40;;
13439;SDS011;6792;57.698;11.946;2023-08-12T08:30:08;9.48;;;4.50;;
13439;SDS011;6792;57.698;11.946;2023-08-12T08:32:42;10.40;;;4.28;;
13439;SDS011;6792;57.698;11.946;2023-08-12T08:35:13;8.80;;;4.58;;
13439;SDS011;6792;57.698;11.946;2023-08-12T08:37:43;10.25;;;3.77;;
13439;SDS011;6792;57.698;11.946;2023-08-12T08:40:12;5.97;;;3.95;;
13439;SDS011;6792;57.698;11.946;2023-08-12T08:42:42;5.53;;;3.87;;
13439;SDS011;6792;57.698;11.946;2023-08-12T08:45:13;6.72;;;4.42;;
13439;SDS011;6792;57.698;11.946;2023-08-12T08:47:43;9.58;;;4.28;;
13439;SDS011;6792;57.698;11.946;2023-08-12T08:50:14;6.58;;;4.60;;
13439;SDS011;6792;57.698;11.946;2023-08-12T08:52:45;7.70;;;3.98;;
13439;SDS011;6792;57.698;11.946;2023-08-12T08:55:15;6.85;;;4.80;;
13439;SDS011;6792;57.698;11.946;2023-08-12T08:57:47;5.80;;;3.87;;
13439;SDS011;6792;57.698;11.946;2023-08-12T09:00:17;5.58;;;3.92;;
13439;SDS011;6792;57.698;11.946;2023-08-12T09:02:48;5.35;;;3.62;;
13439;SDS011;6792;57.698;11.946;2023-08-12T09:05:18;8.93;;;4.35;;
13439;SDS011;6792;57.698;11.946;2023-08-12T09:07:49;8.50;;;3.95;;
13439;SDS011;6792;57.698;11.946;2023-08-12T09:10:21;8.63;;;4.95;;
13439;SDS011;6792;57.698;11.946;2023-08-12T09:13:03;9.43;;;4.20;;
13439;SDS011;6792;57.698;11.946;2023-08-12T09:15:33;9.23;;;4.05;;
13439;SDS011;6792;57.698;11.946;2023-08-12T09:18:05;4.83;;;3.95;;
13439;SDS011;6792;57.698;11.946;2023-08-12T09:20:34;8.05;;;4.22;;
13439;SDS011;6792;57.698;11.946;2023-08-12T09:23:04;5.67;;;3.87;;
13439;SDS011;6792;57.698;11.946;2023-08-12T09:25:35;9.63;;;4.17;;
13439;SDS011;6792;57.698;11.946;2023-08-12T09:28:07;7.30;;;3.77;;
13439;SDS011;6792;57.698;11.946;2023-08-12T09:30:38;7.47;;;4.10;;
13439;SDS011;6792;57.698;11.946;2023-08-12T09:33:09;7.30;;;4.33;;
13439;SDS011;6792;57.698;11.946;2023-08-12T09:35:39;6.25;;;3.42;;
13439;SDS011;6792;57.698;11.946;2023-08-12T09:38:11;8.65;;;4.30;;
13439;SDS011;6792;57.698;11.946;2023-08-12T09:40:41;6.67;;;3.58;;
13439;SDS011;6792;57.698;11.946;2023-08-12T09:43:11;7.12;;;3.90;;
13439;SDS011;6792;57.698;11.946;2023-08-12T09:45:43;5.50;;;3.70;;
13439;SDS011;6792;57.698;11.946;2023-08-12T09:48:13;5.50;;;3.37;;
13439;SDS011;6792;57.698;11.946;2023-08-12T09:50:45;9.40;;;4.50;;
13439;SDS011;6792;57.698;11.946;2023-08-12T09:53:14;6.60;;;3.90;;
13439;SDS011;6792;57.698;11.946;2023-08-12T09:55:52;6.28;;;4.42;;
13439;SDS011;6792;57.698;11.946;2023-08-12T09:58:24;3.80;;;3.50;;
13439;SDS011;6792;57.698;11.946;2023-08-12T10:00:55;5.15;;;3.65;;
13439;SDS011;6792;57.698;11.946;2023-08-12T10:03:25;8.98;;;4.25;;
13439;SDS011;6792;57.698;11.946;2023-08-12T10:05:57;6.28;;;4.28;;
13439;SDS011;6792;57.698;11.946;2023-08-12T10:08:27;4.92;;;3.83;;
13439;SDS011;6792;57.698;11.946;2023-08-12T10:10:57;6.20;;;3.35;;
13439;SDS011;6792;57.698;11.946;2023-08-12T10:13:26;5.10;;;3.80;;
13439;SDS011;6792;57.698;11.946;2023-08-12T10:15:56;7.53;;;4.58;;
13439;SDS011;6792;57.698;11.946;2023-08-12T10:18:25;4.85;;;4.03;;
13439;SDS011;6792;57.698;11.946;2023-08-12T10:20:57;6.12;;;4.20;;
13439;SDS011;6792;57.698;11.946;2023-08-12T10:26:18;10.10;;;4.60;;
13439;SDS011;6792;57.698;11.946;2023-08-12T10:28:49;8.30;;;4.35;;
13439;SDS011;6792;57.698;11.946;2023-08-12T10:31:19;7.05;;;4.40;;
13439;SDS011;6792;57.698;11.946;2023-08-12T10:33:48;7.47;;;4.40;;
13439;SDS011;6792;57.698;11.946;2023-08-12T10:36:18;5.92;;;3.90;;
13439;SDS011;6792;57.698;11.946;2023-08-12T10:38:48;6.97;;;4.17;;
13439;SDS011;6792;57.698;11.946;2023-08-12T10:41:19;7.05;;;4.08;;
13439;SDS011;6792;57.698;11.946;2023-08-12T10:43:53;5.20;;;4.22;;
13439;SDS011;6792;57.698;11.946;2023-08-12T10:46:32;5.55;;;3.83;;
13439;SDS011;6792;57.698;11.946;2023-08-12T10:49:03;7.15;;;3.87;;
13439;SDS011;6792;57.698;11.946;2023-08-12T10:54:37;6.78;;;3.60;;
13439;SDS011;6792;57.698;11.946;2023-08-12T10:57:08;6.08;;;4.00;;
13439;SDS011;6792;57.698;11.946;2023-08-12T10:59:48;5.35;;;3.37;;
13439;SDS011;6792;57.698;11.946;2023-08-12T11:02:25;5.45;;;3.70;;
13439;SDS011;6792;57.698;11.946;2023-08-12T11:05:01;6.67;;;3.67;;
13439;SDS011;6792;57.698;11.946;2023-08-12T11:07:33;5.00;;;3.50;;
13439;SDS011;6792;57.698;11.946;2023-08-12T11:10:05;4.10;;;3.70;;
13439;SDS011;6792;57.698;11.946;2023-08-12T11:12:39;6.00;;;3.20;;
13439;SDS011;6792;57.698;11.946;2023-08-12T11:15:10;6.47;;;3.45;;
13439;SDS011;6792;57.698;11.946;2023-08-12T11:17:40;5.62;;;2.98;;
13439;SDS011;6792;57.698;11.946;2023-08-12T11:20:11;4.42;;;2.85;;
13439;SDS011;6792;57.698;11.946;2023-08-12T11:22:42;5.05;;;3.10;;
13439;SDS011;6792;57.698;11.946;2023-08-12T11:25:12;6.12;;;3.10;;
13439;SDS011;6792;57.698;11.946;2023-08-12T11:27:42;5.50;;;3.35;;
13439;SDS011;6792;57.698;11.946;2023-08-12T11:30:13;2.83;;;2.37;;
13439;SDS011;6792;57.698;11.946;2023-08-12T11:32:45;7.17;;;3.00;;
13439;SDS011;6792;57.698;11.946;2023-08-12T11:35:16;3.65;;;2.52;;
13439;SDS011;6792;57.698;11.946;2023-08-12T11:37:47;5.22;;;2.47;;
13439;SDS011;6792;57.698;11.946;2023-08-12T11:40:20;2.65;;;2.45;;
13439;SDS011;6792;57.698;11.946;2023-08-12T11:42:51;2.58;;;2.22;;
13439;SDS011;6792;57.698;11.946;2023-08-12T11:45:30;4.87;;;2.40;;
13439;SDS011;6792;57.698;11.946;2023-08-12T11:48:00;5.90;;;2.83;;
13439;SDS011;6792;57.698;11.946;2023-08-12T11:50:31;3.37;;;2.33;;
13439;SDS011;6792;57.698;11.946;2023-08-12T11:53:01;3.08;;;2.75;;
13439;SDS011;6792;57.698;11.946;2023-08-12T11:55:31;4.40;;;2.75;;
13439;SDS011;6792;57.698;11.946;2023-08-12T11:58:00;5.95;;;2.92;;
13439;SDS011;6792;57.698;11.946;2023-08-12T12:00:30;4.50;;;2.60;;
13439;SDS011;6792;57.698;11.946;2023-08-12T12:03:01;6.05;;;3.22;;
13439;SDS011;6792;57.698;11.946;2023-08-12T12:05:32;4.35;;;3.60;;
13439;SDS011;6792;57.698;11.946;2023-08-12T12:08:02;7.40;;;3.10;;
13439;SDS011;6792;57.698;11.946;2023-08-12T12:10:35;5.08;;;3.17;;
13439;SDS011;6792;57.698;11.946;2023-08-12T12:13:05;4.75;;;2.83;;
13439;SDS011;6792;57.698;11.946;2023-08-12T12:15:38;4.92;;;2.80;;
13439;SDS011;6792;57.698;11.946;2023-08-12T12:18:24;5.20;;;2.83;;
13439;SDS011;6792;57.698;11.946;2023-08-12T12:20:54;5.42;;;2.98;;
13439;SDS011;6792;57.698;11.946;2023-08-12T12:23:27;3.55;;;2.72;;
13439;SDS011;6792;57.698;11.946;2023-08-12T12:25:59;7.20;;;3.00;;
13439;SDS011;6792;57.698;11.946;2023-08-12T12:28:29;4.40;;;2.92;;
13439;SDS011;6792;57.698;11.946;2023-08-12T12:30:59;4.80;;;2.62;;
13439;SDS011;6792;57.698;11.946;2023-08-12T12:33:29;4.83;;;2.50;;
13439;SDS011;6792;57.698;11.946;2023-08-12T12:35:58;6.55;;;2.67;;
13439;SDS011;6792;57.698;11.946;2023-08-12T12:38:28;4.10;;;2.80;;
13439;SDS011;6792;57.698;11.946;2023-08-12T12:40:57;3.17;;;2.58;;
13439;SDS011;6792;57.698;11.946;2023-08-12T12:43:27;3.12;;;2.55;;
13439;SDS011;6792;57.698;11.946;2023-08-12T12:45:57;4.25;;;2.75;;
13439;SDS011;6792;57.698;11.946;2023-08-12T12:48:26;4.62;;;2.50;;
13439;SDS011;6792;57.698;11.946;2023-08-12T12:50:56;5.08;;;2.87;;
13439;SDS011;6792;57.698;11.946;2023-08-12T12:53:27;3.65;;;2.60;;
13439;SDS011;6792;57.698;11.946;2023-08-12T12:55:57;7.97;;;3.08;;
13439;SDS011;6792;57.698;11.946;2023-08-12T12:58:28;5.05;;;2.72;;
13439;SDS011;6792;57.698;11.946;2023-08-12T13:00:59;3.65;;;2.55;;
13439;SDS011;6792;57.698;11.946;2023-08-12T13:03:30;3.33;;;2.42;;
13439;SDS011;6792;57.698;11.946;2023-08-12T13:06:00;3.75;;;2.35;;
13439;SDS011;6792;57.698;11.946;2023-08-12T13:08:29;3.35;;;2.45;;
13439;SDS011;6792;57.698;11.946;2023-08-12T13:10:59;3.77;;;2.33;;
13439;SDS011;6792;57.698;11.946;2023-08-12T13:13:29;6.90;;;2.37;;
13439;SDS011;6792;57.698;11.946;2023-08-12T13:15:58;6.00;;;2.20;;
13439;SDS011;6792;57.698;11.946;2023-08-12T13:18:28;5.10;;;2.30;;
13439;SDS011;6792;57.698;11.946;2023-08-12T13:21:01;3.65;;;1.90;;
13439;SDS011;6792;57.698;11.946;2023-08-12T13:23:31;5.90;;;2.27;;
13439;SDS011;6792;57.698;11.946;2023-08-12T13:26:00;5.05;;;2.17;;
13439;SDS011;6792;57.698;11.946;2023-08-12T13:28:30;3.30;;;2.00;;
13439;SDS011;6792;57.698;11.946;2023-08-12T13:30:59;5.03;;;2.47;;
13439;SDS011;6792;57.698;11.946;2023-08-12T13:33:29;2.62;;;2.30;;
13439;SDS011;6792;57.698;11.946;2023-08-12T13:35:59;3.72;;;1.70;;
13439;SDS011;6792;57.698;11.946;2023-08-12T13:38:29;2.17;;;1.70;;
13439;SDS011;6792;57.698;11.946;2023-08-12T13:40:58;2.55;;;2.35;;
13439;SDS011;6792;57.698;11.946;2023-08-12T13:43:28;4.22;;;2.35;;
13439;SDS011;6792;57.698;11.946;2023-08-12T13:46:00;2.75;;;2.22;;
13439;SDS011;6792;57.698;11.946;2023-08-12T13:48:30;5.17;;;1.90;;
13439;SDS011;6792;57.698;11.946;2023-08-12T13:51:01;4.25;;;2.12;;
13439;SDS011;6792;57.698;11.946;2023-08-12T13:53:33;2.75;;;1.62;;
13439;SDS011;6792;57.698;11.946;2023-08-12T13:56:05;2.47;;;1.82;;
13439;SDS011;6792;57.698;11.946;2023-08-12T13:58:38;1.77;;;1.67;;
13439;SDS011;6792;57.698;11.946;2023-08-12T14:01:08;2.70;;;1.52;;
13439;SDS011;6792;57.698;11.946;2023-08-12T14:03:37;1.85;;;1.67;;
13439;SDS011;6792;57.698;11.946;2023-08-12T14:06:06;1.57;;;1.45;;
13439;SDS011;6792;57.698;11.946;2023-08-12T14:08:36;2.08;;;1.42;;
13439;SDS011;6792;57.698;11.946;2023-08-12T14:11:05;1.82;;;1.62;;
13439;SDS011;6792;57.698;11.946;2023-08-12T14:13:34;1.90;;;1.55;;
13439;SDS011;6792;57.698;11.946;2023-08-12T14:16:04;1.70;;;1.60;;
13439;SDS011;6792;57.698;11.946;2023-08-12T14:18:33;1.77;;;1.52;;
13439;SDS011;6792;57.698;11.946;2023-08-12T14:21:03;1.90;;;1.40;;
13439;SDS011;6792;57.698;11.946;2023-08-12T14:23:32;2.02;;;1.92;;
13439;SDS011;6792;57.698;11.946;2023-08-12T14:26:01;2.17;;;2.08;;
13439;SDS011;6792;57.698;11.946;2023-08-12T14:28:31;2.10;;;2.00;;
13439;SDS011;6792;57.698;11.946;2023-08-12T14:31:01;2.20;;;2.08;;
13439;SDS011;6792;57.698;11.946;2023-08-12T14:33:30;2.65;;;2.45;;
13439;SDS011;6792;57.698;11.946;2023-08-12T14:36:00;2.50;;;2.30;;
13439;SDS011;6792;57.698;11.946;2023-08-12T14:38:31;2.60;;;2.40;;
13439;SDS011;6792;57.698;11.946;2023-08-12T14:41:01;2.45;;;2.22;;
13439;SDS011;6792;57.698;11.946;2023-08-12T14:43:42;2.60;;;2.30;;
13439;SDS011;6792;57.698;11.946;2023-08-12T14:46:12;2.75;;;2.55;;
13439;SDS011;6792;57.698;11.946;2023-08-12T14:48:41;3.02;;;2.50;;
13439;SDS011;6792;57.698;11.946;2023-08-12T14:51:11;4.97;;;2.92;;
13439;SDS011;6792;57.698;11.946;2023-08-12T14:53:41;3.62;;;2.50;;
13439;SDS011;6792;57.698;11.946;2023-08-12T14:56:10;3.20;;;2.85;;
13439;SDS011;6792;57.698;11.946;2023-08-12T14:58:40;4.47;;;3.40;;
13439;SDS011;6792;57.698;11.946;2023-08-12T15:01:09;3.90;;;2.67;;
13439;SDS011;6792;57.698;11.946;2023-08-12T15:03:42;3.40;;;2.60;;
13439;SDS011;6792;57.698;11.946;2023-08-12T15:06:12;2.80;;;2.37;;
13439;SDS011;6792;57.698;11.946;2023-08-12T15:08:41;2.20;;;2.05;;
13439;SDS011;6792;57.698;11.946;2023-08-12T15:11:11;4.87;;;2.22;;
13439;SDS011;6792;57.698;11.946;2023-08-12T15:13:40;2.70;;;2.15;;
13439;SDS011;6792;57.698;11.946;2023-08-12T15:16:10;5.70;;;2.10;;
13439;SDS011;6792;57.698;11.946;2023-08-12T15:18:40;3.40;;;2.20;;
13439;SDS011;6792;57.698;11.946;2023-08-12T15:21:10;2.70;;;2.00;;